Cherrycreek, Mississippi
Current Conditions -  °F | °C
As of 11:53 AM on Friday 28 Nov 2014 (Local Time) from KTUP Reporting Station
Clear Clear  
Wind Chill: 42°   Ceiling: Unl
Heat Index: 46°   Visibility: 10mi
Dew Point: 28°   Wind: 7mph
Humidity: 50%   Direction: 190°S
Pressure: 30.37"   Gusts: NA
Location:  34.4333°N, 88.8629°W
Report Text: KTUP 281753Z 19006KT 10SM CLR 08/M02 A3037 RMK AO2 SLP285 T00781022 10078 21028 58028
Loading
Personal Weather Stations






























Interactive Weather Map New forecast layout! Learn more

10-Day Weather Forecast

Advertisements
Track Severe Weather on mobile